Time;durP1;ratioP1;P1;durP2;ratioP2;P2;SDS_P1;SDS_P2;PMS_P1;PMS_P2;Temp;Humidity;BMP_temperature;BMP_pressure;BME280_temperature;BME280_humidity;BME280_pressure;Samples;Min_cycle;Max_cycle;Signal;HPM_P1;HPM_P2
2021/01/07 00:06:54;;;;;;;76.7;63.1;;;;;;;0.15;89.19141;98009.16;;;;
2021/01/07 00:16:52;;;;;;;119.1;85.7;;;;;;;0.11;89.10742;98022.11;;;;
2021/01/07 00:26:50;;;;;;;92.9;67.3;;;;;;;0.12;89.47266;98023.72;;;;
2021/01/07 00:36:48;;;;;;;91.7;63.2;;;;;;;0.19;89.46484;98023.5;;;;
2021/01/07 00:46:46;;;;;;;97.9;70.8;;;;;;;0.03;89.5293;98035.84;;;;
2021/01/07 00:56:44;;;;;;;86;60.4;;;;;;;0.23;88.89258;98035.19;;;;
2021/01/07 01:06:41;;;;;;;97.9;64.9;;;;;;;0.22;88.98926;98039.69;;;;
2021/01/07 01:16:39;;;;;;;97.3;71.1;;;;;;;0.2;89.30176;98027.75;;;;
2021/01/07 01:26:37;;;;;;;83.2;62.2;;;;;;;0.24;89.36621;98027;;;;
2021/01/07 01:36:34;;;;;;;92.9;66.5;;;;;;;0.13;89.79102;98017.38;;;;
2021/01/07 01:46:32;;;;;;;107.8;82.5;;;;;;;0.12;89.84473;98036.16;;;;
2021/01/07 01:56:30;;;;;;;80.7;62.5;;;;;;;0.15;90.22266;98019.75;;;;
2021/01/07 02:06:28;;;;;;;81.3;66.9;;;;;;;0.2;90.04785;98019.8;;;;
2021/01/07 02:16:26;;;;;;;84.8;61;;;;;;;0.32;89.91797;98017.75;;;;
2021/01/07 02:26:23;;;;;;;91.9;67.4;;;;;;;0.24;90.44043;98011.1;;;;
2021/01/07 02:36:21;;;;;;;92.8;65;;;;;;;0.27;90.44629;98001.83;;;;
2021/01/07 02:46:19;;;;;;;82.2;57.9;;;;;;;0.33;90.39355;98017.51;;;;
2021/01/07 02:56:17;;;;;;;86;59.3;;;;;;;0.46;89.96094;98027.66;;;;
2021/01/07 03:06:15;;;;;;;74.8;55.8;;;;;;;0.46;90.06934;98021.55;;;;
2021/01/07 03:16:13;;;;;;;69;51.7;;;;;;;0.63;89.58887;98016.08;;;;
2021/01/07 03:26:11;;;;;;;69.4;54;;;;;;;0.67;89.51074;98015.31;;;;
2021/01/07 03:36:08;;;;;;;81.2;57.4;;;;;;;0.59;89.84473;98029.05;;;;
2021/01/07 03:46:06;;;;;;;74.5;53.8;;;;;;;0.72;89.58594;98022.5;;;;
2021/01/07 03:56:04;;;;;;;66.8;58.6;;;;;;;0.72;89.21191;98019.86;;;;
2021/01/07 04:06:02;;;;;;;90;58.7;;;;;;;0.74;89.0752;98018.53;;;;
2021/01/07 04:16:00;;;;;;;80.3;57.8;;;;;;;0.66;89.05859;98029.62;;;;
2021/01/07 04:25:58;;;;;;;80.5;59.8;;;;;;;0.81;88.55176;98024.41;;;;
2021/01/07 04:35:56;;;;;;;70.7;50.7;;;;;;;0.79;88.46875;98025.72;;;;
2021/01/07 04:45:54;;;;;;;62.6;47.7;;;;;;;0.95;88.36133;98030.83;;;;
2021/01/07 04:55:52;;;;;;;75.2;64.5;;;;;;;0.95;88.49121;98024.72;;;;
2021/01/07 05:05:53;;;;;;;57.5;50.7;;;;;;;1;88.71973;98019.45;;;;
2021/01/07 05:15:48;;;;;;;52.7;47.3;;;;;;;1.01;88.26172;98013.07;;;;
2021/01/07 05:25:46;;;;;;;63.5;44.8;;;;;;;0.93;88.42188;98026.85;;;;
2021/01/07 05:35:44;;;;;;;56.4;47.3;;;;;;;0.87;88.31152;98023.36;;;;
2021/01/07 05:45:43;;;;;;;66.8;48;;;;;;;0.96;88.37207;98023.67;;;;
2021/01/07 05:55:40;;;;;;;59;46.8;;;;;;;0.87;88.58398;98035.82;;;;
2021/01/07 06:05:38;;;;;;;68;47;;;;;;;0.97;88.26367;98041.2;;;;
2021/01/07 06:15:36;;;;;;;61.9;48;;;;;;;0.88;88.72949;98050.69;;;;
2021/01/07 06:25:34;;;;;;;46;34.7;;;;;;;0.88;88.58594;98045.38;;;;
2021/01/07 06:35:32;;;;;;;48.2;33;;;;;;;0.81;88.55176;98056.23;;;;
2021/01/07 06:45:29;;;;;;;45.3;32;;;;;;;0.79;88.68848;98061;;;;
2021/01/07 06:55:27;;;;;;;38.3;29.4;;;;;;;0.76;88.74902;98081.94;;;;
2021/01/07 07:05:25;;;;;;;39.8;27;;;;;;;0.8;88.5166;98091.75;;;;
2021/01/07 07:15:23;;;;;;;27.7;23.8;;;;;;;0.77;88.55273;98107.38;;;;
2021/01/07 07:25:21;;;;;;;26;22.2;;;;;;;0.76;88.375;98117.22;;;;
2021/01/07 07:35:19;;;;;;;27.3;22.2;;;;;;;0.71;88.45215;98134.93;;;;
2021/01/07 07:45:17;;;;;;;38.2;30.8;;;;;;;0.69;87.5918;98148.46;;;;
2021/01/07 07:55:15;;;;;;;28.4;20.8;;;;;;;0.63;87.66699;98160.06;;;;
2021/01/07 08:05:13;;;;;;;26;20.6;;;;;;;0.6;86.79297;98175.67;;;;
2021/01/07 08:15:11;;;;;;;23.3;17.3;;;;;;;0.48;86.54785;98183.81;;;;
2021/01/07 08:25:09;;;;;;;24.6;15.5;;;;;;;0.58;86.30566;98205.11;;;;
2021/01/07 08:35:07;;;;;;;28.1;20.2;;;;;;;0.5;86.21289;98208.21;;;;
2021/01/07 08:45:04;;;;;;;25.9;22.9;;;;;;;0.52;86.72168;98214.08;;;;
2021/01/07 08:55:02;;;;;;;30.8;22.6;;;;;;;0.51;86.58789;98220.42;;;;
2021/01/07 09:05:00;;;;;;;18.7;15.9;;;;;;;0.34;86.86133;98225.84;;;;
2021/01/07 09:14:59;;;;;;;26.8;18;;;;;;;0.4;87.22363;98229.33;;;;
2021/01/07 09:24:56;;;;;;;32.8;19.8;;;;;;;0.41;88.36914;98236.23;;;;
2021/01/07 09:34:54;;;;;;;30.4;16.8;;;;;;;0.45;85.62109;98227.52;;;;
2021/01/07 09:44:52;;;;;;;28.2;21.6;;;;;;;0.7;86.28516;98228.8;;;;
2021/01/07 09:54:52;;;;;;;26;20.2;;;;;;;0.83;85.23438;98217.78;;;;
2021/01/07 10:04:47;;;;;;;29.9;22.5;;;;;;;0.77;85.15625;98242.64;;;;
2021/01/07 10:14:45;;;;;;;26.1;18.1;;;;;;;0.69;84.80957;98233.32;;;;
2021/01/07 10:24:44;;;;;;;24.7;18.1;;;;;;;0.83;84.46387;98233.7;;;;
2021/01/07 10:34:41;;;;;;;27.1;19.4;;;;;;;0.9;82.88184;98232.41;;;;
2021/01/07 10:44:39;;;;;;;28.7;20;;;;;;;1.12;82.74707;98239.47;;;;
2021/01/07 10:54:37;;;;;;;27.7;17.7;;;;;;;1.08;81.12988;98241.05;;;;
2021/01/07 11:04:35;;;;;;;23.4;16.2;;;;;;;0.99;82.99805;98238.86;;;;
2021/01/07 11:14:33;;;;;;;24.5;17.6;;;;;;;1.06;83.45117;98232.53;;;;
2021/01/07 11:24:30;;;;;;;18.1;16.2;;;;;;;1.52;83.06738;98223.8;;;;
2021/01/07 11:34:28;;;;;;;34.4;21.3;;;;;;;1.4;80.30859;98225.84;;;;
2021/01/07 11:44:26;;;;;;;16.7;14.1;;;;;;;1.06;80.52246;98241.3;;;;
2021/01/07 11:54:24;;;;;;;20.3;12.8;;;;;;;0.72;81.08594;98235.47;;;;
2021/01/07 12:04:22;;;;;;;17.4;13.3;;;;;;;0.64;81.80859;98235.91;;;;
2021/01/07 12:14:20;;;;;;;26.2;17.7;;;;;;;0.41;83.07422;98237.05;;;;
2021/01/07 12:24:19;;;;;;;31.7;23.8;;;;;;;0.5;83.68359;98237.38;;;;
2021/01/07 12:34:16;;;;;;;25.6;17.4;;;;;;;0.6;82.88965;98245.42;;;;
2021/01/07 12:44:14;;;;;;;30.9;22.9;;;;;;;0.39;84.00391;98248.92;;;;
2021/01/07 12:54:12;;;;;;;38.1;29.9;;;;;;;0.6;84.60547;98249.92;;;;
2021/01/07 13:04:09;;;;;;;31.1;21.5;;;;;;;0.72;83.49512;98255.88;;;;
2021/01/07 13:14:07;;;;;;;30.5;22.6;;;;;;;0.94;83.06543;98260.03;;;;
2021/01/07 13:24:05;;;;;;;27.4;18.6;;;;;;;0.94;82.69043;98260.03;;;;
2021/01/07 13:34:03;;;;;;;22.5;18.7;;;;;;;0.81;82.37988;98273.73;;;;
2021/01/07 13:44:01;;;;;;;32.3;20.4;;;;;;;0.81;83.27246;98273.73;;;;
2021/01/07 13:53:58;;;;;;;25.5;20.3;;;;;;;0.43;84.28711;98293.25;;;;
2021/01/07 14:03:56;;;;;;;44.6;25.4;;;;;;;0.46;84.40234;98292.75;;;;
2021/01/07 14:13:54;;;;;;;34.2;23.7;;;;;;;0.45;84.36621;98287.71;;;;
2021/01/07 14:23:53;;;;;;;25;20.6;;;;;;;0.55;83.84668;98303.72;;;;
2021/01/07 14:33:54;;;;;;;28;21.4;;;;;;;0.6;83.50488;98310.91;;;;
2021/01/07 14:43:48;;;;;;;50.3;32.9;;;;;;;0.54;83.53711;98311.91;;;;
2021/01/07 14:53:46;;;;;;;30.7;23.7;;;;;;;0.54;82.97754;98320.67;;;;
2021/01/07 15:03:44;;;;;;;33;24.7;;;;;;;0.34;82.95996;98326.55;;;;
2021/01/07 15:13:41;;;;;;;24.6;21.2;;;;;;;0.29;83.25684;98320.38;;;;
2021/01/07 15:23:39;;;;;;;47.8;35.1;;;;;;;0.28;83.46484;98324.06;;;;
2021/01/07 15:33:37;;;;;;;60.1;39.7;;;;;;;0.26;82.95508;98328.83;;;;
2021/01/07 15:43:35;;;;;;;35.8;25.4;;;;;;;0.09;83.27246;98336.04;;;;
2021/01/07 15:53:33;;;;;;;51.1;36.2;;;;;;;-0.02;83.22949;98335.11;;;;
2021/01/07 16:03:30;;;;;;;33.6;24.3;;;;;;;-0.25;83.27344;98335.33;;;;
2021/01/07 16:13:28;;;;;;;40.9;31.4;;;;;;;-0.33;82.6543;98347.13;;;;
2021/01/07 16:23:26;;;;;;;42.6;29.3;;;;;;;-0.3;82.58398;98344;;;;
2021/01/07 16:33:23;;;;;;;66.3;36.5;;;;;;;-0.21;82.57813;98337.23;;;;
2021/01/07 16:43:21;;;;;;;53.9;32.2;;;;;;;-0.16;81.90723;98347.91;;;;
2021/01/07 16:53:19;;;;;;;56.3;29.5;;;;;;;-0.1;81.5791;98346.92;;;;
2021/01/07 17:03:17;;;;;;;119.8;53.2;;;;;;;0.01;81.32422;98337.26;;;;
2021/01/07 17:13:15;;;;;;;46;30.5;;;;;;;0.08;81.03027;98329.94;;;;
2021/01/07 17:23:13;;;;;;;53;32.8;;;;;;;0.06;81.14551;98333.88;;;;
2021/01/07 17:33:10;;;;;;;76.9;50;;;;;;;0.12;81.07129;98341.64;;;;
2021/01/07 17:43:08;;;;;;;99.5;46.3;;;;;;;0.19;81.16016;98347.56;;;;
2021/01/07 17:53:06;;;;;;;36.2;28.5;;;;;;;0.21;81.22949;98348.11;;;;
2021/01/07 18:03:04;;;;;;;172.8;91.6;;;;;;;0.17;81.4541;98360.27;;;;
2021/01/07 18:13:01;;;;;;;102;49.3;;;;;;;0.21;81.1748;98360.58;;;;
2021/01/07 18:22:59;;;;;;;41.7;28.1;;;;;;;0.18;80.92773;98356.55;;;;
2021/01/07 18:33:01;;;;;;;36.7;29.1;;;;;;;0.11;80.85742;98376.32;;;;
2021/01/07 18:42:55;;;;;;;38.7;26;;;;;;;0.12;80.12402;98377.94;;;;
2021/01/07 18:52:53;;;;;;;37;28.8;;;;;;;0.16;80.31738;98371.1;;;;
2021/01/07 19:02:54;;;;;;;86.6;48.4;;;;;;;0.04;80.50684;98368.55;;;;
2021/01/07 19:12:48;;;;;;;125.4;73.8;;;;;;;0.06;80.83789;98384.22;;;;
2021/01/07 19:22:46;;;;;;;71.1;44.8;;;;;;;0.12;81.36621;98396.48;;;;
2021/01/07 19:32:44;;;;;;;46.2;35.6;;;;;;;0.09;81.38184;98402.27;;;;
2021/01/07 19:42:42;;;;;;;59;40.1;;;;;;;0.04;82.16699;98395.05;;;;
2021/01/07 19:52:39;;;;;;;72.4;43.9;;;;;;;0;82.29004;98405.33;;;;
2021/01/07 20:02:37;;;;;;;64.8;40.6;;;;;;;-0.02;82.04297;98414.58;;;;
2021/01/07 20:12:35;;;;;;;50.4;41.3;;;;;;;-0.02;80.41797;98415.38;;;;
2021/01/07 20:22:35;;;;;;;56;38.7;;;;;;;-0.15;80.18555;98405.13;;;;
2021/01/07 20:32:31;;;;;;;54.3;42;;;;;;;-0.05;80.23633;98423.81;;;;
2021/01/07 20:42:29;;;;;;;143.7;93.2;;;;;;;-0.05;80.32422;98423.81;;;;
2021/01/07 20:52:27;;;;;;;40.7;34.3;;;;;;;-0.03;79.58008;98415.61;;;;
2021/01/07 21:02:25;;;;;;;46.8;33.7;;;;;;;-0.02;76.86426;98423.33;;;;
2021/01/07 21:12:22;;;;;;;33.1;23.1;;;;;;;0;76.64746;98426.52;;;;
2021/01/07 21:22:20;;;;;;;35;26.9;;;;;;;-0.06;77.10938;98437.28;;;;
2021/01/07 21:32:18;;;;;;;36.4;22.8;;;;;;;-0.05;77.63965;98433.61;;;;
2021/01/07 21:42:16;;;;;;;23.2;15.3;;;;;;;-0.07;75.40332;98425.89;;;;
2021/01/07 21:52:14;;;;;;;28.8;19.5;;;;;;;-0.05;73.89648;98428.3;;;;
2021/01/07 22:02:12;;;;;;;28.6;18.7;;;;;;;-0.05;73.35742;98439.71;;;;
2021/01/07 22:12:10;;;;;;;25.9;15.3;;;;;;;-0.06;73.2334;98439.94;;;;
2021/01/07 22:22:07;;;;;;;29.3;18.1;;;;;;;-0.06;73.56543;98435.45;;;;
2021/01/07 22:32:05;;;;;;;22;16.7;;;;;;;-0.05;74.16016;98433.61;;;;
2021/01/07 22:42:03;;;;;;;21.8;14.2;;;;;;;-0.07;73.85059;98441.78;;;;
2021/01/07 22:52:01;;;;;;;27.3;16.1;;;;;;;-0.1;74.4707;98438.81;;;;
2021/01/07 23:01:59;;;;;;;25.4;16.3;;;;;;;-0.07;74.73145;98441.78;;;;
2021/01/07 23:11:56;;;;;;;27.6;20.4;;;;;;;-0.08;74.77246;98442.04;;;;
2021/01/07 23:21:54;;;;;;;31.8;19.1;;;;;;;-0.07;75.24805;98433.06;;;;
2021/01/07 23:31:53;;;;;;;22.2;14.4;;;;;;;-0.05;75.26172;98433.61;;;;
2021/01/07 23:41:50;;;;;;;19.5;16.6;;;;;;;-0.04;75.79199;98445.81;;;;
2021/01/07 23:51:48;;;;;;;17.6;15.7;;;;;;;-0.11;75.87988;98443.34;;;;
